Impacts METAR Board
IDs:

KMEM - Memphis Intl, TN, US

Updated at: 0100 UTC 28 May 2018
Potential Impact None Slight Moderate High
Time 27/13Z 27/14Z 27/15Z 27/16Z 27/17Z 27/18Z 27/19Z 27/20Z 27/21Z 27/22Z 27/23Z 28/00Z 28/01Z
Temp75 78 81 83 84 85 85 86 73 76 79 79 78
Dewpt70 72 72 73 72 71 71 73 71 72 72 72 73
Altim29.92 29.92 29.92 29.92 29.92 29.91 29.89 29.87 29.87 29.86 29.84 29.87 29.86
VIS10 10 10 10 10 10 10 10 10 10 10 10 10
CIG-- -- -- 250 46 250 39 200 47 250 250 250 --
CoverSCTSCTSCTBKNBKNBKNBKNBKNOVCBKNBKNBKNSCT
FltCatVFRVFRVFRVFRVFRVFRVFRVFRVFRVFRVFRVFRVFR
WX--------------VCTS-TSRA--------
WDir0150201001701602502100140140150
WSpd0 4 6 6 4 3 8 6 10 0 3 5 5
WGst-- -- -- -- -- -- -- -- 21 -- -- -- --
Raw hourly METARs
KMEM 271254Z 00000KT 10SM FEW150 SCT250 24/21 A2992 RMK AO2 SLP127 T02390211 $
KMEM 271354Z 15004KT 10SM SCT250 26/22 A2992 RMK AO2 SLP126 T02560222 $
KMEM 271454Z 02006KT 10SM FEW020 SCT250 27/22 A2992 RMK AO2 SLP128 T02720222 51004 $
KMEM 271554Z 01006KT 10SM SCT022 BKN250 28/23 A2992 RMK AO2 SLP127 T02830228 $
KMEM 271701Z VRB04KT 10SM SCT030 SCT039 BKN046 29/22 A2992 RMK AO2 T02890222 $
KMEM 271754Z 17003KT 10SM FEW035 SCT045 BKN250 29/22 A2991 RMK AO2 SLP125 T02940217 10300 20228 58002 $
KMEM 271854Z 16008KT 10SM BKN039 BKN049 BKN075 29/22 A2989 RMK AO2 SLP119 T02940217 $
KMEM 271954Z 25006KT 10SM VCTS SCT041CB BKN200 30/23 A2987 RMK AO2 LTG DSNT E-SW SLP112 T03000228 $
KMEM 272054Z 21010G21KT 10SM R36L/4500VP6000FT -TSRA FEW017 BKN047CB OVC120 23/22 A2987 RMK AO2 PK WND 20030/2031 WSHFT 2018 LTG DSNT SW RAB26 TSB01 SLP111 OCNL LTGICCC OHD TS OHD MOV W P0079 60079 T02280217 56014 $
KMEM 272154Z 00000KT 10SM FEW042 FEW110 SCT150 BKN250 24/22 A2986 RMK AO2 LTG DSNT E RAE16 TSE05 SLP108 VCSH P0000 T02440222 $
KMEM 272254Z 14003KT 10SM FEW110 SCT150 BKN250 26/22 A2984 RMK AO2 SLP100 T02610222 $
KMEM 272354Z 14005KT 10SM FEW110 FEW150 BKN250 26/22 A2987 RMK AO2 SLP110 60079 T02610222 10317 20217 55001 $
KMEM 280054Z 15005KT 10SM FEW110 SCT150 SCT250 26/23 A2986 RMK AO2 SLP107 T02560228 $



Page loaded:  01:39 UTC  |   06:39 PM Pacific  |   07:39 PM Mountain  |   08:39 PM Central  |   09:39 PM Eastern

 

ADVISORIES

FORECASTS

FORECASTS

OBSERVATIONS

USER TOOLS

ABOUT US